Time;durP1;ratioP1;P1;durP2;ratioP2;P2;SDS_P1;SDS_P2;PMS_P1;PMS_P2;Temp;Humidity;BMP_temperature;BMP_pressure;BME280_temperature;BME280_humidity;BME280_pressure;Samples;Min_cycle;Max_cycle;Signal;HPM_P1;HPM_P2
2022/11/15 00:04:47;;;;;;;8.75;7.95;;;;;;;10.88;82.52;99829.72;10559592;27;20056;-72
2022/11/15 00:09:48;;;;;;;10.48;7.32;;;;;;;10.91;82.42;99835.63;10543354;28;20047;-71
2022/11/15 00:14:49;;;;;;;8.85;7.32;;;;;;;10.88;82.37;99827.03;10528596;28;20044;-70
2022/11/15 00:19:50;;;;;;;9.48;8.07;;;;;;;10.89;82.35;99826.91;10543728;28;20048;-73
2022/11/15 00:24:52;;;;;;;8.75;7.70;;;;;;;10.84;82.59;99822.97;10569277;28;20151;-72
2022/11/15 00:29:53;;;;;;;9.98;7.35;;;;;;;10.81;82.26;99824.09;10571274;28;20538;-72
2022/11/15 00:34:54;;;;;;;8.02;7.18;;;;;;;10.90;82.21;99820.63;10524335;28;20047;-72
2022/11/15 00:39:56;;;;;;;8.65;7.28;;;;;;;10.73;82.67;99807.94;10523092;28;20644;-71
2022/11/15 00:44:57;;;;;;;11.18;8.15;;;;;;;10.82;81.96;99807.13;10523551;28;20043;-70
2022/11/15 00:49:58;;;;;;;9.55;7.63;;;;;;;10.78;82.13;99797.75;10506135;28;20056;-72
2022/11/15 00:54:59;;;;;;;9.52;8.52;;;;;;;10.73;82.27;99808.81;10511044;28;20122;-71
2022/11/15 01:00:01;;;;;;;8.80;7.95;;;;;;;10.70;82.51;99814.38;10547502;28;20072;-70
2022/11/15 01:05:02;;;;;;;10.63;8.02;;;;;;;10.65;82.79;99791.81;10506899;28;20054;-68
2022/11/15 01:10:05;;;;;;;8.85;7.95;;;;;;;10.68;82.67;99802.19;10517502;28;20603;-70
2022/11/15 01:15:06;;;;;;;8.10;7.07;;;;;;;10.73;82.94;99783.97;10521302;28;20048;-72
2022/11/15 01:20:08;;;;;;;9.70;7.63;;;;;;;10.70;83.17;99778.94;10517106;28;20050;-70
2022/11/15 01:25:10;;;;;;;6.78;6.10;;;;;;;10.73;83.16;99781.31;10524030;28;20048;-71
2022/11/15 01:30:11;;;;;;;7.95;6.30;;;;;;;10.74;83.26;99786.50;10531630;28;20052;-73
2022/11/15 01:35:13;;;;;;;6.18;5.57;;;;;;;10.74;83.00;99780.34;10541220;28;20060;-70
2022/11/15 01:40:14;;;;;;;6.32;5.72;;;;;;;10.73;83.20;99773.34;10514321;28;20216;-68
2022/11/15 01:45:16;;;;;;;6.30;5.15;;;;;;;10.80;83.08;99779.81;10531761;28;20529;-71
2022/11/15 01:50:22;;;;;;;5.55;4.60;;;;;;;10.78;82.79;99771.13;10519576;28;20071;-69
2022/11/15 01:55:27;;;;;;;6.85;5.63;;;;;;;10.81;82.63;99765.53;10521284;28;20051;-72
2022/11/15 02:00:30;;;;;;;6.97;5.20;;;;;;;10.86;82.58;99760.63;10518852;28;20062;-71
2022/11/15 02:05:32;;;;;;;6.95;5.10;;;;;;;10.92;82.24;99765.38;10517526;28;20055;-70
2022/11/15 02:10:33;;;;;;;6.22;5.20;;;;;;;10.90;81.93;99756.72;10507641;28;20051;-70
2022/11/15 02:15:50;;;;;;;6.10;5.05;;;;;;;10.94;81.66;99747.47;10519584;28;20489;-73
2022/11/15 02:21:36;;;;;;;7.30;4.85;;;;;;;11.00;81.25;99738.06;10524596;28;20039;-73
2022/11/15 02:27:16;;;;;;;4.70;4.03;;;;;;;11.04;80.74;99733.31;10522285;28;20059;-69
2022/11/15 02:32:25;;;;;;;4.80;4.22;;;;;;;11.09;80.58;99726.59;10526311;28;20039;-69
2022/11/15 02:37:39;;;;;;;5.88;4.88;;;;;;;11.11;80.71;99713.13;10529106;28;20051;-71
2022/11/15 02:48:10;;;;;;;6.03;4.05;;;;;;;11.12;80.26;99717.47;10541448;28;20040;-72
2022/11/15 02:53:13;;;;;;;5.00;4.30;;;;;;;11.09;80.96;99717.75;10566029;28;20495;-69
2022/11/15 02:58:35;;;;;;;4.28;3.72;;;;;;;11.07;80.59;99715.22;10515226;28;21073;-72
2022/11/15 03:03:57;;;;;;;6.47;4.55;;;;;;;11.04;80.96;99712.00;10531644;27;20035;-74
2022/11/15 03:09:18;;;;;;;6.63;4.80;;;;;;;10.93;81.31;99697.84;10463389;28;20044;-71
2022/11/15 03:14:35;;;;;;;5.53;4.35;;;;;;;10.83;81.76;99694.34;10531762;28;21384;-72
2022/11/15 03:19:55;;;;;;;5.38;4.57;;;;;;;10.77;81.67;99690.38;10516287;27;20055;-71
2022/11/15 03:25:05;;;;;;;7.85;4.75;;;;;;;10.75;81.75;99684.38;10511495;28;20078;-71
2022/11/15 03:30:08;;;;;;;5.47;4.30;;;;;;;10.81;82.34;99696.31;10519067;28;20055;-70
2022/11/15 03:35:20;;;;;;;6.13;4.63;;;;;;;10.85;81.91;99704.84;10519260;28;20528;-70
2022/11/15 03:40:27;;;;;;;5.05;4.57;;;;;;;10.76;81.71;99703.84;10522023;28;20054;-71
2022/11/15 03:46:00;;;;;;;6.35;4.25;;;;;;;10.72;82.15;99697.09;10532200;28;20055;-73
2022/11/15 03:51:03;;;;;;;5.50;4.50;;;;;;;10.58;82.54;99701.88;10530888;28;20047;-71
2022/11/15 03:56:04;;;;;;;7.05;4.70;;;;;;;10.54;82.49;99697.78;10553153;28;20048;-73
2022/11/15 04:01:06;;;;;;;5.50;5.00;;;;;;;10.55;82.72;99699.50;10557626;28;20100;-71
2022/11/15 04:06:07;;;;;;;6.72;5.05;;;;;;;10.63;82.48;99697.94;10556066;28;20047;-72
2022/11/15 04:11:08;;;;;;;5.65;4.07;;;;;;;10.65;82.43;99701.31;10530881;28;20058;-71
2022/11/15 04:16:10;;;;;;;6.25;4.22;;;;;;;10.70;82.45;99699.06;10565501;28;20047;-72
2022/11/15 04:26:31;;;;;;;6.93;4.88;;;;;;;10.76;82.18;99699.38;10516900;28;20035;-71
2022/11/15 04:31:32;;;;;;;7.90;5.43;;;;;;;10.81;82.16;99690.97;10521429;28;20052;-71
2022/11/15 04:41:54;;;;;;;5.57;4.63;;;;;;;10.83;82.43;99681.03;10545721;28;20395;-72
2022/11/15 04:46:56;;;;;;;5.43;4.93;;;;;;;10.83;82.42;99677.53;10529583;28;20465;-71
2022/11/15 04:51:57;;;;;;;6.07;4.55;;;;;;;10.89;82.67;99667.13;10504270;28;20048;-68
2022/11/15 04:56:58;;;;;;;5.15;4.53;;;;;;;10.89;82.57;99672.47;10518851;28;20047;-70
2022/11/15 05:02:00;;;;;;;5.28;4.78;;;;;;;10.91;82.52;99670.53;10517466;28;20051;-70
2022/11/15 05:07:01;;;;;;;6.50;5.15;;;;;;;10.91;82.22;99670.53;10497142;28;20058;-71
2022/11/15 05:12:03;;;;;;;5.30;4.40;;;;;;;10.93;82.00;99668.56;10520045;28;20055;-68
2022/11/15 05:17:04;;;;;;;5.55;4.32;;;;;;;10.94;81.68;99664.91;10521106;28;20051;-69
2022/11/15 05:22:06;;;;;;;5.75;4.55;;;;;;;10.94;81.28;99659.59;10518066;28;20055;-71
2022/11/15 05:27:07;;;;;;;6.15;4.72;;;;;;;10.90;81.51;99658.19;10509044;28;20063;-71
2022/11/15 05:32:09;;;;;;;7.20;5.45;;;;;;;10.87;81.25;99663.78;10520368;28;20044;-71
2022/11/15 05:37:10;;;;;;;6.03;5.40;;;;;;;10.81;81.73;99653.69;10511103;28;20244;-74
2022/11/15 05:42:13;;;;;;;7.90;5.10;;;;;;;10.79;81.35;99650.31;10544957;28;20055;-70
2022/11/15 05:47:19;;;;;;;7.15;5.38;;;;;;;10.74;82.01;99655.25;10506247;28;20044;-68
2022/11/15 05:52:24;;;;;;;7.18;5.38;;;;;;;10.74;81.92;99649.91;10481808;28;20044;-68
2022/11/15 05:57:26;;;;;;;6.93;5.03;;;;;;;10.73;81.97;99640.22;10491076;28;20043;-68
2022/11/15 06:02:27;;;;;;;11.27;6.90;;;;;;;10.72;81.99;99630.56;10510360;27;20055;-70
2022/11/15 06:07:29;;;;;;;9.20;6.80;;;;;;;10.73;81.98;99629.59;10505902;28;20669;-72
2022/11/15 06:12:31;;;;;;;27.17;23.95;;;;;;;10.69;82.11;99638.81;10508607;28;20054;-70
2022/11/15 06:17:32;;;;;;;11.15;9.68;;;;;;;10.71;82.39;99643.03;10498440;27;20048;-68
2022/11/15 06:22:33;;;;;;;10.43;9.32;;;;;;;10.85;82.22;99644.44;10507815;28;20053;-70
2022/11/15 06:27:34;;;;;;;7.13;6.15;;;;;;;10.85;82.21;99644.44;10512245;28;20051;-71
2022/11/15 06:32:36;;;;;;;9.90;5.80;;;;;;;10.90;82.21;99647.53;10511866;27;20051;-75
2022/11/15 06:37:38;;;;;;;6.05;5.18;;;;;;;10.96;82.15;99641.63;10521263;28;20540;-69
2022/11/15 06:42:39;;;;;;;7.43;5.45;;;;;;;11.03;82.18;99649.06;10483606;28;20208;-73
2022/11/15 06:47:47;;;;;;;8.68;5.65;;;;;;;11.10;81.55;99653.69;10506320;27;20105;-70
2022/11/15 06:52:49;;;;;;;8.80;6.28;;;;;;;11.10;82.09;99648.34;10495472;27;20498;-75
2022/11/15 06:57:51;;;;;;;8.27;7.47;;;;;;;11.11;82.14;99654.53;10537269;28;20043;-71
2022/11/15 07:02:53;;;;;;;7.90;6.82;;;;;;;11.17;82.17;99643.31;10516128;27;20063;-67
2022/11/15 07:07:56;;;;;;;10.75;6.70;;;;;;;11.19;81.36;99657.31;10490990;28;20192;-69
2022/11/15 07:12:57;;;;;;;10.50;6.00;;;;;;;11.24;81.80;99652.38;10510098;28;20123;-69
2022/11/15 07:18:01;;;;;;;7.18;5.95;;;;;;;11.24;80.52;99665.72;10511049;28;21216;-71
2022/11/15 07:23:04;;;;;;;7.07;6.00;;;;;;;11.25;80.48;99667.41;10507094;28;20039;-71
2022/11/15 07:28:06;;;;;;;7.30;5.50;;;;;;;11.40;80.63;99664.31;10486327;27;20062;-70
2022/11/15 07:33:07;;;;;;;8.18;6.63;;;;;;;11.54;79.57;99666.50;10508797;27;20075;-69
2022/11/15 07:38:09;;;;;;;9.80;6.55;;;;;;;11.61;78.20;99672.13;10509266;28;20055;-69
2022/11/15 07:43:10;;;;;;;9.57;6.15;;;;;;;11.71;78.11;99661.41;10483638;28;20519;-69
2022/11/15 07:48:11;;;;;;;7.65;6.00;;;;;;;11.77;77.84;99656.34;10493672;28;20056;-69
2022/11/15 07:53:13;;;;;;;8.00;6.07;;;;;;;11.77;77.51;99655.50;10510882;28;20043;-68
2022/11/15 07:58:14;;;;;;;11.00;5.88;;;;;;;11.79;77.06;99654.38;10520257;28;20048;-70
2022/11/15 08:03:17;;;;;;;6.60;5.88;;;;;;;11.83;77.38;99657.59;10541205;28;20504;-69
2022/11/15 08:08:18;;;;;;;7.20;5.38;;;;;;;11.82;77.47;99653.25;10522924;28;20385;-68
2022/11/15 08:13:20;;;;;;;7.85;5.75;;;;;;;11.85;77.45;99656.44;10524307;28;20040;-71
2022/11/15 08:18:22;;;;;;;7.20;5.88;;;;;;;11.87;77.70;99661.63;10557138;28;20058;-70
2022/11/15 08:23:23;;;;;;;7.78;6.30;;;;;;;11.99;77.26;99652.50;10555003;28;21304;-75
2022/11/15 08:28:24;;;;;;;7.50;6.53;;;;;;;12.06;77.44;99660.75;10560496;28;20291;-72
2022/11/15 08:33:26;;;;;;;7.88;6.80;;;;;;;12.10;77.56;99645.28;10523569;28;20047;-70
2022/11/15 08:38:30;;;;;;;8.32;6.35;;;;;;;12.21;77.21;99655.75;10485553;28;20047;-68
2022/11/15 08:43:33;;;;;;;7.25;6.30;;;;;;;12.29;77.07;99657.69;10486227;28;20055;-71
2022/11/15 08:48:35;;;;;;;6.18;5.07;;;;;;;12.30;76.51;99662.88;10525483;28;20053;-74
2022/11/15 08:53:36;;;;;;;6.53;4.93;;;;;;;12.34;76.61;99650.06;10508747;28;20047;-70
2022/11/15 08:58:38;;;;;;;7.43;4.90;;;;;;;12.38;75.67;99644.28;10502287;28;20516;-70
2022/11/15 09:03:40;;;;;;;13.63;4.13;;;;;;;12.44;75.40;99637.50;10488233;27;20047;-70
2022/11/15 09:08:41;;;;;;;6.82;4.10;;;;;;;12.54;74.89;99648.13;10502344;28;20092;-70
2022/11/15 09:13:50;;;;;;;7.30;4.50;;;;;;;12.64;75.18;99643.56;10479858;28;20494;-68
2022/11/15 09:18:53;;;;;;;8.70;4.40;;;;;;;12.74;73.74;99643.47;10505050;28;20062;-71
2022/11/15 09:23:55;;;;;;;8.65;4.25;;;;;;;13.03;73.63;99637.91;10503127;28;21136;-69
2022/11/15 09:28:56;;;;;;;8.60;4.40;;;;;;;13.19;73.42;99631.81;10505690;28;20264;-69
2022/11/15 09:33:58;;;;;;;9.82;4.43;;;;;;;13.44;71.99;99630.19;10513173;27;20068;-72
2022/11/15 09:38:59;;;;;;;7.93;4.85;;;;;;;13.57;72.02;99628.94;10494690;28;20048;-69
2022/11/15 09:44:04;;;;;;;6.85;5.18;;;;;;;13.47;71.32;99633.56;10509253;27;20561;-70
2022/11/15 09:49:08;;;;;;;6.57;4.75;;;;;;;13.39;72.13;99628.97;10513609;28;20051;-71
2022/11/15 09:54:42;;;;;;;6.05;4.93;;;;;;;13.63;72.09;99622.97;10515749;28;20052;-70
2022/11/15 10:00:11;;;;;;;7.97;4.88;;;;;;;14.21;70.83;99617.84;10511399;28;20137;-70
2022/11/15 10:05:38;;;;;;;7.18;4.65;;;;;;;16.28;65.44;99603.25;10523297;28;20066;-71
2022/11/15 10:10:44;;;;;;;7.47;4.10;;;;;;;16.90;60.76;99602.34;10512870;28;20055;-72
2022/11/15 10:15:48;;;;;;;5.78;4.57;;;;;;;17.90;56.83;99595.81;10485529;28;20058;-71
2022/11/15 10:20:51;;;;;;;;;;;;;;;18.80;53.24;99587.50;10498287;27;20377;-68
2022/11/15 10:25:55;;;;;;;6.57;5.00;;;;;;;18.62;53.84;99567.19;10484665;28;19928;-67
2022/11/15 10:30:59;;;;;;;8.05;4.65;;;;;;;17.74;56.49;99563.69;10502506;28;20059;-69
2022/11/15 10:36:09;;;;;;;5.32;4.40;;;;;;;16.70;59.02;99569.75;10498737;28;20047;-71
2022/11/15 10:41:11;;;;;;;6.50;4.65;;;;;;;16.07;60.97;99553.69;10483751;28;21372;-70
2022/11/15 10:46:22;;;;;;;9.35;4.80;;;;;;;15.70;63.23;99557.84;10478985;28;20546;-71
2022/11/15 10:51:56;;;;;;;5.57;3.97;;;;;;;15.40;64.32;99549.56;10485117;28;20589;-70
2022/11/15 10:57:00;;;;;;;6.28;4.10;;;;;;;16.61;60.04;99553.66;10483582;28;20462;-72
2022/11/15 11:02:02;;;;;;;4.93;4.15;;;;;;;16.22;61.82;99546.56;10499545;28;20043;-71
2022/11/15 11:07:21;;;;;;;4.60;3.70;;;;;;;15.88;62.61;99531.66;10484275;28;20047;-69
2022/11/15 11:12:29;;;;;;;5.03;4.18;;;;;;;15.64;63.17;99521.00;10500152;27;20058;-69
2022/11/15 11:18:08;;;;;;;6.22;4.13;;;;;;;15.56;64.51;99498.56;10481132;28;20052;-72
2022/11/15 11:23:16;;;;;;;4.10;3.42;;;;;;;16.05;63.50;99512.78;10478971;28;20087;-68
2022/11/15 11:28:35;;;;;;;6.22;3.30;;;;;;;17.60;57.56;99495.41;10500939;28;20048;-69
2022/11/15 11:34:13;;;;;;;7.53;3.67;;;;;;;18.86;53.08;99489.69;10482564;28;20055;-69
2022/11/15 11:39:44;;;;;;;7.97;4.35;;;;;;;18.38;54.84;99482.19;10495313;28;20052;-68
2022/11/15 11:45:04;;;;;;;4.57;3.10;;;;;;;19.27;52.70;99464.63;10498644;27;20044;-71
2022/11/15 11:50:19;;;;;;;3.55;2.80;;;;;;;18.47;53.29;99469.44;10499990;28;20051;-69
2022/11/15 11:55:45;;;;;;;5.30;3.15;;;;;;;17.83;55.71;99460.25;10479897;28;20638;-72
2022/11/15 12:00:51;;;;;;;5.95;3.38;;;;;;;17.08;58.16;99464.91;10501037;28;20054;-71
2022/11/15 12:05:57;;;;;;;5.80;3.30;;;;;;;16.69;59.66;99457.88;10499434;27;20044;-69
2022/11/15 12:11:19;;;;;;;3.92;3.25;;;;;;;16.84;60.02;99442.59;10499243;28;20048;-71
2022/11/15 12:16:26;;;;;;;4.40;3.38;;;;;;;17.47;58.10;99432.34;10497066;28;20048;-71
2022/11/15 12:21:51;;;;;;;5.05;3.03;;;;;;;17.78;56.43;99435.78;10488397;28;20051;-68
2022/11/15 12:27:13;;;;;;;3.55;2.78;;;;;;;16.95;59.43;99418.00;10500939;27;20055;-69
2022/11/15 12:32:26;;;;;;;3.83;2.85;;;;;;;17.00;59.21;99413.94;10481426;28;20090;-67
2022/11/15 12:37:48;;;;;;;4.15;2.70;;;;;;;16.95;60.13;99396.50;10499410;28;20754;-70
2022/11/15 12:43:12;;;;;;;4.78;2.60;;;;;;;16.51;61.69;99391.88;10503833;28;20055;-69
2022/11/15 12:48:16;;;;;;;;;;;;;;;15.95;63.42;99399.44;10500576;28;20494;-72
2022/11/15 12:53:27;;;;;;;3.67;2.50;;;;;;;15.52;65.33;99405.22;10500133;28;19942;-73
2022/11/15 12:58:56;;;;;;;3.28;2.20;;;;;;;15.33;66.60;99390.41;10500832;28;20422;-70
2022/11/15 13:04:19;;;;;;;4.65;2.45;;;;;;;15.25;67.39;99385.91;10498900;28;20051;-70
2022/11/15 13:09:35;;;;;;;4.22;2.72;;;;;;;15.27;67.04;99377.72;10495254;28;20052;-69
2022/11/15 13:14:37;;;;;;;3.88;3.28;;;;;;;15.30;67.32;99366.63;10479203;28;24007;-69
2022/11/15 13:19:38;;;;;;;3.15;2.85;;;;;;;15.11;68.67;99366.03;10481206;28;20058;-69
2022/11/15 13:24:39;;;;;;;4.25;2.30;;;;;;;15.02;68.95;99365.22;10496850;28;20047;-70
2022/11/15 13:29:43;;;;;;;3.85;2.58;;;;;;;15.09;69.42;99365.38;10491708;28;21034;-70
2022/11/15 13:34:48;;;;;;;2.97;2.10;;;;;;;15.18;69.00;99350.94;10477904;28;20051;-73
2022/11/15 13:39:52;;;;;;;3.78;2.08;;;;;;;15.17;68.71;99338.53;10478754;28;20054;-71
2022/11/15 13:44:56;;;;;;;2.42;1.73;;;;;;;15.21;68.72;99336.34;10474172;28;20048;-70
2022/11/15 13:49:59;;;;;;;1.65;1.40;;;;;;;15.14;68.74;99330.03;10496784;28;20895;-70
2022/11/15 13:55:08;;;;;;;2.70;1.30;;;;;;;15.10;68.62;99332.22;10492279;28;20043;-72
2022/11/15 14:00:44;;;;;;;2.03;1.38;;;;;;;15.06;69.05;99320.19;10474596;28;20180;-70
2022/11/15 14:06:03;;;;;;;2.10;1.63;;;;;;;15.06;69.42;99317.50;10474272;28;20044;-70
2022/11/15 14:11:19;;;;;;;1.80;1.20;;;;;;;15.05;69.48;99309.63;10494234;28;20059;-70
2022/11/15 14:16:32;;;;;;;2.05;1.73;;;;;;;14.98;70.26;99301.44;10502014;28;20055;-70
2022/11/15 14:21:33;;;;;;;3.72;1.70;;;;;;;14.91;70.72;99297.81;10505141;28;20707;-71
2022/11/15 14:26:34;;;;;;;3.75;1.90;;;;;;;14.83;70.69;99296.84;10502024;28;20066;-68
2022/11/15 14:31:36;;;;;;;3.55;1.63;;;;;;;14.78;70.58;99285.78;10488719;28;20059;-69
2022/11/15 14:36:44;;;;;;;2.63;1.67;;;;;;;14.74;70.59;99279.13;10504966;27;20051;-71
2022/11/15 14:41:45;;;;;;;3.78;1.85;;;;;;;14.71;70.59;99278.63;10509194;27;20058;-68
2022/11/15 14:46:47;;;;;;;3.72;1.73;;;;;;;14.70;71.97;99264.41;10520244;28;20052;-72
2022/11/15 14:51:49;;;;;;;4.85;1.85;;;;;;;14.67;72.85;99251.38;10507581;27;20044;-72
2022/11/15 14:56:50;;;;;;;4.68;1.60;;;;;;;14.66;73.41;99249.69;10527065;28;20690;-71
2022/11/15 15:01:51;;;;;;;7.22;1.63;;;;;;;14.63;75.18;99247.38;10511802;28;20074;-72
2022/11/15 15:06:53;;;;;;;6.40;1.92;;;;;;;14.61;76.29;99233.34;10522684;27;20050;-71
2022/11/15 15:11:54;;;;;;;3.67;1.85;;;;;;;14.54;76.56;99218.94;10527629;27;20195;-71
2022/11/15 15:16:55;;;;;;;3.42;2.22;;;;;;;14.50;76.94;99213.06;10518074;28;22109;-69
2022/11/15 15:21:57;;;;;;;7.80;3.13;;;;;;;14.39;77.66;99194.72;10524479;28;20882;-70
2022/11/15 15:26:58;;;;;;;8.68;4.07;;;;;;;14.27;77.44;99183.56;10501208;28;20757;-71
2022/11/15 15:31:59;;;;;;;6.50;4.60;;;;;;;14.20;77.67;99190.63;10488251;28;20694;-69
2022/11/15 15:37:25;;;;;;;5.63;4.00;;;;;;;14.12;78.43;99178.09;10506280;27;20059;-71
2022/11/15 15:42:26;;;;;;;6.78;4.90;;;;;;;14.13;78.67;99174.44;10486384;28;20051;-69
2022/11/15 15:47:27;;;;;;;10.10;8.20;;;;;;;14.10;78.44;99175.59;10504641;28;20311;-71
2022/11/15 15:52:29;;;;;;;14.50;10.07;;;;;;;14.04;78.75;99180.81;10513616;28;20056;-71
2022/11/15 15:57:30;;;;;;;11.80;7.00;;;;;;;14.01;77.64;99154.41;10522423;28;20112;-71
2022/11/15 16:02:31;;;;;;;33.00;29.58;;;;;;;14.01;76.73;99149.88;10524059;27;20047;-71
2022/11/15 16:07:42;;;;;;;15.02;13.48;;;;;;;14.01;76.54;99154.41;10491206;28;20071;-72
2022/11/15 16:12:44;;;;;;;31.65;28.38;;;;;;;14.01;76.32;99141.03;10541410;28;20285;-73
2022/11/15 16:17:56;;;;;;;45.90;41.03;;;;;;;13.98;75.20;99139.53;10535394;27;20048;-70
2022/11/15 16:22:58;;;;;;;39.72;32.03;;;;;;;13.98;75.32;99139.53;10511054;28;20148;-70
2022/11/15 16:28:28;;;;;;;16.00;11.88;;;;;;;13.97;75.07;99141.34;10488679;28;20465;-70
2022/11/15 16:33:30;;;;;;;17.88;13.80;;;;;;;13.95;74.19;99138.03;10460634;28;20039;-70
2022/11/15 16:38:32;;;;;;;10.52;9.25;;;;;;;13.94;73.89;99133.66;10499974;28;20525;-70
2022/11/15 16:43:34;;;;;;;51.47;41.85;;;;;;;13.95;74.24;99134.53;10501746;28;20047;-70
2022/11/15 16:48:36;;;;;;;32.53;26.55;;;;;;;13.89;72.67;99127.19;10498850;28;20746;-71
2022/11/15 16:53:37;;;;;;;22.13;18.98;;;;;;;13.84;72.60;99126.84;10499076;28;20134;-70
2022/11/15 16:58:39;;;;;;;21.10;17.00;;;;;;;13.81;72.20;99127.22;10490138;28;20056;-70
2022/11/15 17:03:40;;;;;;;37.42;34.13;;;;;;;13.74;71.85;99111.03;10509634;28;20306;-73
2022/11/15 17:08:41;;;;;;;53.83;48.13;;;;;;;13.71;71.85;99104.16;10535775;28;20054;-74
2022/11/15 17:13:43;;;;;;;29.80;26.83;;;;;;;13.79;72.16;99108.66;10537015;28;20040;-69
2022/11/15 17:18:49;;;;;;;73.28;66.57;;;;;;;13.79;72.36;99104.13;10522460;28;20051;-71
2022/11/15 17:23:50;;;;;;;11.52;10.40;;;;;;;13.73;72.00;99098.66;10513506;28;20040;-73
2022/11/15 17:28:56;;;;;;;10.45;8.40;;;;;;;13.70;73.06;99089.13;10513121;28;20176;-71
2022/11/15 17:33:57;;;;;;;8.55;7.85;;;;;;;13.71;72.66;99090.81;10509997;28;20075;-68
2022/11/15 17:38:58;;;;;;;6.22;4.93;;;;;;;13.64;72.17;99079.13;10499039;28;20075;-70
2022/11/15 17:44:02;;;;;;;3.55;3.25;;;;;;;13.66;71.82;99077.13;10521431;28;20051;-69
2022/11/15 17:49:03;;;;;;;4.47;3.13;;;;;;;13.61;71.69;99060.75;10496076;28;20059;-70
2022/11/15 17:54:05;;;;;;;3.35;3.05;;;;;;;13.62;71.08;99067.78;10498477;28;20055;-70
2022/11/15 17:59:07;;;;;;;6.47;3.28;;;;;;;13.59;71.19;99060.91;10507861;28;20058;-70
2022/11/15 18:04:16;;;;;;;4.78;3.40;;;;;;;13.62;71.70;99059.75;10514177;28;20551;-69
2022/11/15 18:09:18;;;;;;;4.07;3.20;;;;;;;13.65;71.79;99047.88;10509657;28;20059;-68
2022/11/15 18:14:19;;;;;;;3.83;3.13;;;;;;;13.63;72.44;99050.72;10503896;28;20055;-69
2022/11/15 18:19:21;;;;;;;4.85;3.58;;;;;;;13.63;72.76;99040.03;10502582;28;20550;-72
2022/11/15 18:24:23;;;;;;;3.75;3.38;;;;;;;13.67;72.28;99036.00;10518840;27;20756;-70
2022/11/15 18:29:24;;;;;;;7.55;3.95;;;;;;;13.67;72.84;99027.16;10528194;28;20059;-70
2022/11/15 18:34:32;;;;;;;5.97;3.85;;;;;;;13.60;72.80;99013.63;10515480;27;21868;-73
2022/11/15 18:39:34;;;;;;;6.07;3.55;;;;;;;13.68;72.88;99032.31;10501567;28;20063;-70
2022/11/15 18:44:35;;;;;;;5.38;4.40;;;;;;;13.66;73.21;99020.13;10499237;28;20047;-69
2022/11/15 18:49:36;;;;;;;5.82;4.47;;;;;;;13.63;73.50;99024.00;10503940;27;20228;-68
2022/11/15 18:54:37;;;;;;;5.80;3.50;;;;;;;13.60;73.42;99018.97;10507458;27;20067;-70
2022/11/15 18:59:39;;;;;;;4.53;3.90;;;;;;;13.59;73.34;99026.16;10483052;28;20052;-71
2022/11/15 19:04:40;;;;;;;6.68;5.32;;;;;;;13.56;73.15;99007.78;10494251;28;20048;-71
2022/11/15 19:09:41;;;;;;;5.70;5.15;;;;;;;13.56;72.83;99002.44;10492876;28;20055;-71
2022/11/15 19:14:43;;;;;;;6.45;5.32;;;;;;;13.57;72.91;98992.56;10492655;28;20077;-70
2022/11/15 19:19:44;;;;;;;5.50;4.55;;;;;;;13.55;72.83;98994.59;10497820;27;20040;-70
2022/11/15 19:24:45;;;;;;;5.82;3.78;;;;;;;13.51;72.80;98993.28;10495938;27;20046;-71
2022/11/15 19:29:47;;;;;;;4.70;4.20;;;;;;;13.50;73.11;98992.44;10492133;28;20418;-68
2022/11/15 19:34:48;;;;;;;5.43;4.07;;;;;;;13.51;72.89;98991.44;10496989;28;20635;-69
2022/11/15 19:39:49;;;;;;;4.47;4.07;;;;;;;13.51;73.00;98977.22;10496736;28;20055;-70
2022/11/15 19:44:50;;;;;;;5.55;4.93;;;;;;;13.50;73.24;98978.25;10514926;28;20050;-70
2022/11/15 19:49:52;;;;;;;5.15;4.75;;;;;;;13.47;73.27;98984.78;10509482;27;20055;-70
2022/11/15 19:54:53;;;;;;;6.30;5.05;;;;;;;13.48;73.68;98982.94;10487698;28;20055;-70
2022/11/15 19:59:54;;;;;;;7.75;5.13;;;;;;;13.47;73.56;98982.09;10506238;28;20695;-69
2022/11/15 20:04:55;;;;;;;7.97;6.18;;;;;;;13.46;74.18;98968.91;10507673;28;21633;-70
2022/11/15 20:09:57;;;;;;;8.77;5.78;;;;;;;13.40;73.84;98954.41;10512445;28;20059;-69
2022/11/15 20:14:59;;;;;;;7.53;5.95;;;;;;;13.40;74.20;98957.91;10522723;28;20058;-70
2022/11/15 20:20:00;;;;;;;10.27;5.60;;;;;;;13.41;74.64;98956.06;10495071;28;20047;-69
2022/11/15 20:25:01;;;;;;;7.72;6.40;;;;;;;13.39;74.94;98950.91;10486431;28;20047;-69
2022/11/15 20:30:03;;;;;;;8.40;5.80;;;;;;;13.36;75.49;98953.06;10500638;28;20055;-70
2022/11/15 20:35:05;;;;;;;5.95;5.35;;;;;;;13.34;75.60;98945.22;10496703;28;20490;-69
2022/11/15 20:40:06;;;;;;;7.40;6.10;;;;;;;13.34;75.79;98939.88;10484236;28;20047;-70
2022/11/15 20:45:08;;;;;;;6.93;5.25;;;;;;;13.31;75.41;98934.03;10481911;28;20048;-69
2022/11/15 20:50:09;;;;;;;5.68;4.95;;;;;;;13.29;75.88;98930.72;10477597;28;20623;-69
2022/11/15 20:55:31;;;;;;;6.07;5.47;;;;;;;13.26;75.58;98927.34;10487620;28;20671;-70
2022/11/15 21:00:32;;;;;;;8.02;5.97;;;;;;;13.27;75.72;98926.38;10503593;28;20051;-70
2022/11/15 21:05:37;;;;;;;7.18;5.70;;;;;;;13.27;75.56;98920.19;10499679;28;20056;-69
2022/11/15 21:16:02;;;;;;;6.53;5.93;;;;;;;13.24;76.12;98913.34;10495799;28;20054;-70
2022/11/15 21:21:04;;;;;;;6.70;5.85;;;;;;;13.23;76.79;98895.66;10482915;28;20810;-70
2022/11/15 21:26:05;;;;;;;7.75;6.22;;;;;;;13.20;76.68;98896.00;10487385;28;20673;-69
2022/11/15 21:31:08;;;;;;;9.02;6.88;;;;;;;13.21;76.47;98886.97;10501031;27;20052;-70
2022/11/15 21:36:09;;;;;;;7.35;5.90;;;;;;;13.22;76.75;98885.13;10520329;27;20437;-71
2022/11/15 21:41:10;;;;;;;7.93;5.88;;;;;;;13.22;76.87;98882.47;10532637;28;20059;-69
2022/11/15 21:46:11;;;;;;;7.30;6.05;;;;;;;13.21;76.47;98872.78;10510726;27;20079;-70
2022/11/15 21:51:13;;;;;;;6.75;5.57;;;;;;;13.18;75.52;98873.13;10511611;27;20208;-70
2022/11/15 21:56:14;;;;;;;7.85;5.65;;;;;;;13.19;75.08;98866.78;10523557;27;20055;-69
2022/11/15 22:06:36;;;;;;;5.80;5.20;;;;;;;13.15;74.91;98865.44;10520516;27;20503;-72
2022/11/15 22:11:38;;;;;;;8.93;5.57;;;;;;;13.14;74.90;98856.63;10531293;27;20082;-70
2022/11/15 22:16:39;;;;;;;6.78;5.80;;;;;;;13.11;74.57;98864.16;10516216;28;21477;-70
2022/11/15 22:21:42;;;;;;;8.10;5.35;;;;;;;13.11;75.46;98848.13;10529756;28;20385;-70
2022/11/15 22:26:44;;;;;;;6.40;5.13;;;;;;;13.07;74.54;98848.44;10530277;27;24892;-70
2022/11/15 22:31:45;;;;;;;7.30;4.88;;;;;;;13.07;75.48;98840.44;10516298;28;20056;-69
2022/11/15 22:36:47;;;;;;;7.50;5.93;;;;;;;13.06;75.55;98829.91;10512802;28;20051;-69
2022/11/15 22:42:08;;;;;;;9.35;5.82;;;;;;;13.08;75.71;98834.09;10513471;28;20047;-69
2022/11/15 22:47:09;;;;;;;5.38;4.85;;;;;;;13.05;76.05;98833.63;10529022;28;20044;-68
2022/11/15 22:52:12;;;;;;;5.93;5.00;;;;;;;13.02;76.58;98833.97;10528418;28;20685;-71
2022/11/15 22:57:13;;;;;;;7.13;5.43;;;;;;;13.02;78.03;98834.78;10525017;28;20047;-70
2022/11/15 23:02:15;;;;;;;5.75;4.70;;;;;;;12.98;77.13;98820.13;10529931;28;20055;-71
2022/11/15 23:07:16;;;;;;;6.70;5.90;;;;;;;12.99;77.40;98819.13;10507019;28;20595;-69
2022/11/15 23:17:38;;;;;;;6.60;5.38;;;;;;;12.95;78.72;98825.81;10527719;28;20051;-70
2022/11/15 23:22:48;;;;;;;5.57;5.05;;;;;;;12.92;79.21;98812.81;10546490;27;20041;-71
2022/11/15 23:27:49;;;;;;;4.57;4.18;;;;;;;12.85;78.83;98801.16;10556359;28;20044;-71
2022/11/15 23:38:10;;;;;;;5.75;4.57;;;;;;;12.78;78.27;98805.53;10554116;28;20047;-72
2022/11/15 23:43:12;;;;;;;5.45;4.50;;;;;;;12.77;78.54;98804.69;10564383;27;20062;-70
2022/11/15 23:48:13;;;;;;;6.07;4.07;;;;;;;12.72;79.47;98802.53;10560734;28;20490;-71
2022/11/15 23:53:14;;;;;;;7.18;5.15;;;;;;;12.72;81.02;98796.38;10530118;28;20051;-69
2022/11/15 23:58:16;;;;;;;6.93;5.45;;;;;;;12.65;82.19;98790.06;10537894;28;20048;-70
